sensor_id;sensor_type;location;lat;lon;timestamp;temperature;humidity
10306;DHT22;5198;52.382;9.020;2023-03-21T00:02:23;9.30;99.90
10306;DHT22;5198;52.382;9.020;2023-03-21T00:06:29;9.30;99.90
10306;DHT22;5198;52.382;9.020;2023-03-21T00:10:34;9.30;99.90
10306;DHT22;5198;52.382;9.020;2023-03-21T00:14:44;9.30;99.90
10306;DHT22;5198;52.382;9.020;2023-03-21T00:18:49;9.30;99.90
10306;DHT22;5198;52.382;9.020;2023-03-21T00:23:01;9.30;99.90
10306;DHT22;5198;52.382;9.020;2023-03-21T00:27:06;9.30;99.90
10306;DHT22;5198;52.382;9.020;2023-03-21T00:31:29;9.30;99.90
10306;DHT22;5198;52.382;9.020;2023-03-21T00:35:32;9.30;99.90
10306;DHT22;5198;52.382;9.020;2023-03-21T00:39:56;9.30;99.90
10306;DHT22;5198;52.382;9.020;2023-03-21T00:44:01;9.30;99.90
10306;DHT22;5198;52.382;9.020;2023-03-21T00:48:05;9.30;99.90
10306;DHT22;5198;52.382;9.020;2023-03-21T00:52:09;9.30;99.90
10306;DHT22;5198;52.382;9.020;2023-03-21T00:56:21;9.30;99.90
10306;DHT22;5198;52.382;9.020;2023-03-21T01:00:25;9.30;99.90
10306;DHT22;5198;52.382;9.020;2023-03-21T01:04:29;9.30;99.90
10306;DHT22;5198;52.382;9.020;2023-03-21T01:08:33;9.30;99.90
10306;DHT22;5198;52.382;9.020;2023-03-21T01:12:52;9.30;99.90
10306;DHT22;5198;52.382;9.020;2023-03-21T01:16:57;9.30;99.90
10306;DHT22;5198;52.382;9.020;2023-03-21T01:21:01;9.30;99.90
10306;DHT22;5198;52.382;9.020;2023-03-21T01:25:04;9.30;99.90
10306;DHT22;5198;52.382;9.020;2023-03-21T01:29:23;9.30;99.90
10306;DHT22;5198;52.382;9.020;2023-03-21T01:33:28;9.30;99.90
10306;DHT22;5198;52.382;9.020;2023-03-21T01:37:32;9.30;99.90
10306;DHT22;5198;52.382;9.020;2023-03-21T01:41:37;9.30;99.90
10306;DHT22;5198;52.382;9.020;2023-03-21T01:46:20;9.30;99.90
10306;DHT22;5198;52.382;9.020;2023-03-21T01:50:25;9.30;99.90
10306;DHT22;5198;52.382;9.020;2023-03-21T01:54:37;9.30;99.90
10306;DHT22;5198;52.382;9.020;2023-03-21T01:58:43;9.30;99.90
10306;DHT22;5198;52.382;9.020;2023-03-21T02:02:47;9.30;99.90
10306;DHT22;5198;52.382;9.020;2023-03-21T02:06:59;9.30;99.90
10306;DHT22;5198;52.382;9.020;2023-03-21T02:11:03;9.30;99.90
10306;DHT22;5198;52.382;9.020;2023-03-21T02:15:08;9.30;99.90
10306;DHT22;5198;52.382;9.020;2023-03-21T02:19:42;9.30;99.90
10306;DHT22;5198;52.382;9.020;2023-03-21T02:24:16;9.20;99.90
10306;DHT22;5198;52.382;9.020;2023-03-21T02:28:27;9.20;99.90
10306;DHT22;5198;52.382;9.020;2023-03-21T02:32:46;9.20;99.90
10306;DHT22;5198;52.382;9.020;2023-03-21T02:37:05;9.20;99.90
10306;DHT22;5198;52.382;9.020;2023-03-21T02:41:15;9.20;99.90
10306;DHT22;5198;52.382;9.020;2023-03-21T02:45:24;9.20;99.90
10306;DHT22;5198;52.382;9.020;2023-03-21T02:49:30;9.20;99.90
10306;DHT22;5198;52.382;9.020;2023-03-21T02:53:38;9.20;99.90
10306;DHT22;5198;52.382;9.020;2023-03-21T02:57:44;9.20;99.90
10306;DHT22;5198;52.382;9.020;2023-03-21T03:01:49;9.20;99.90
10306;DHT22;5198;52.382;9.020;2023-03-21T03:05:56;9.20;99.90
10306;DHT22;5198;52.382;9.020;2023-03-21T03:10:11;9.20;99.90
10306;DHT22;5198;52.382;9.020;2023-03-21T03:14:38;9.20;99.90
10306;DHT22;5198;52.382;9.020;2023-03-21T03:19:06;9.20;99.90
10306;DHT22;5198;52.382;9.020;2023-03-21T03:23:17;9.20;99.90
10306;DHT22;5198;52.382;9.020;2023-03-21T03:27:28;9.20;99.90
10306;DHT22;5198;52.382;9.020;2023-03-21T03:31:35;9.20;99.90
10306;DHT22;5198;52.382;9.020;2023-03-21T03:35:40;9.20;99.90
10306;DHT22;5198;52.382;9.020;2023-03-21T03:39:48;9.20;99.90
10306;DHT22;5198;52.382;9.020;2023-03-21T03:44:05;9.20;99.90
10306;DHT22;5198;52.382;9.020;2023-03-21T03:48:14;9.20;99.90
10306;DHT22;5198;52.382;9.020;2023-03-21T03:52:24;9.20;99.90
10306;DHT22;5198;52.382;9.020;2023-03-21T03:56:29;9.20;99.90
10306;DHT22;5198;52.382;9.020;2023-03-21T04:00:34;9.20;99.90
10306;DHT22;5198;52.382;9.020;2023-03-21T04:04:39;9.20;99.90
10306;DHT22;5198;52.382;9.020;2023-03-21T04:08:42;9.20;99.90
10306;DHT22;5198;52.382;9.020;2023-03-21T04:12:45;9.20;99.90
10306;DHT22;5198;52.382;9.020;2023-03-21T04:16:50;9.20;99.90
10306;DHT22;5198;52.382;9.020;2023-03-21T04:20:55;9.30;99.90
10306;DHT22;5198;52.382;9.020;2023-03-21T04:24:59;9.30;99.90
10306;DHT22;5198;52.382;9.020;2023-03-21T04:29:03;9.30;99.90
10306;DHT22;5198;52.382;9.020;2023-03-21T04:33:07;9.30;99.90
10306;DHT22;5198;52.382;9.020;2023-03-21T04:37:10;9.30;99.90
10306;DHT22;5198;52.382;9.020;2023-03-21T04:41:14;9.30;99.90
10306;DHT22;5198;52.382;9.020;2023-03-21T04:45:17;9.30;99.90
10306;DHT22;5198;52.382;9.020;2023-03-21T04:49:21;9.40;99.90
10306;DHT22;5198;52.382;9.020;2023-03-21T04:53:24;9.40;99.90
10306;DHT22;5198;52.382;9.020;2023-03-21T04:57:27;9.40;99.90
10306;DHT22;5198;52.382;9.020;2023-03-21T05:01:30;9.40;99.90
10306;DHT22;5198;52.382;9.020;2023-03-21T05:05:42;9.40;99.90
10306;DHT22;5198;52.382;9.020;2023-03-21T05:09:45;9.40;99.90
10306;DHT22;5198;52.382;9.020;2023-03-21T05:13:48;9.40;99.90
10306;DHT22;5198;52.382;9.020;2023-03-21T05:17:51;9.40;99.90
10306;DHT22;5198;52.382;9.020;2023-03-21T05:21:56;9.50;99.90
10306;DHT22;5198;52.382;9.020;2023-03-21T05:25:59;9.50;99.90
10306;DHT22;5198;52.382;9.020;2023-03-21T05:30:04;9.50;99.90
10306;DHT22;5198;52.382;9.020;2023-03-21T05:34:07;9.50;99.90
10306;DHT22;5198;52.382;9.020;2023-03-21T05:38:11;9.50;99.90
10306;DHT22;5198;52.382;9.020;2023-03-21T05:42:14;9.50;99.90
10306;DHT22;5198;52.382;9.020;2023-03-21T05:46:17;9.50;99.90
10306;DHT22;5198;52.382;9.020;2023-03-21T05:50:20;9.50;99.90
10306;DHT22;5198;52.382;9.020;2023-03-21T05:54:34;9.60;99.90
10306;DHT22;5198;52.382;9.020;2023-03-21T05:58:37;9.60;99.90
10306;DHT22;5198;52.382;9.020;2023-03-21T06:02:39;9.60;99.90
10306;DHT22;5198;52.382;9.020;2023-03-21T06:06:42;9.60;99.90
10306;DHT22;5198;52.382;9.020;2023-03-21T06:10:47;9.60;99.90
10306;DHT22;5198;52.382;9.020;2023-03-21T06:14:50;9.60;99.90
10306;DHT22;5198;52.382;9.020;2023-03-21T06:18:53;9.70;99.90
10306;DHT22;5198;52.382;9.020;2023-03-21T06:22:56;9.70;99.90
10306;DHT22;5198;52.382;9.020;2023-03-21T06:27:00;9.70;99.90
10306;DHT22;5198;52.382;9.020;2023-03-21T06:31:04;9.70;99.90
10306;DHT22;5198;52.382;9.020;2023-03-21T06:35:10;9.70;99.90
10306;DHT22;5198;52.382;9.020;2023-03-21T06:39:13;9.80;99.90
10306;DHT22;5198;52.382;9.020;2023-03-21T06:43:18;9.80;99.90
10306;DHT22;5198;52.382;9.020;2023-03-21T06:47:22;9.80;99.90
10306;DHT22;5198;52.382;9.020;2023-03-21T06:51:25;9.80;99.90
10306;DHT22;5198;52.382;9.020;2023-03-21T06:55:28;9.90;99.90
10306;DHT22;5198;52.382;9.020;2023-03-21T06:59:32;9.90;99.90
10306;DHT22;5198;52.382;9.020;2023-03-21T07:03:40;9.90;99.90
10306;DHT22;5198;52.382;9.020;2023-03-21T07:07:43;10.00;99.90
10306;DHT22;5198;52.382;9.020;2023-03-21T07:11:47;10.00;99.90
10306;DHT22;5198;52.382;9.020;2023-03-21T07:15:52;10.00;99.90
10306;DHT22;5198;52.382;9.020;2023-03-21T07:19:55;10.10;99.90
10306;DHT22;5198;52.382;9.020;2023-03-21T07:23:58;10.10;99.90
10306;DHT22;5198;52.382;9.020;2023-03-21T07:28:01;10.10;99.90
10306;DHT22;5198;52.382;9.020;2023-03-21T07:32:08;10.20;99.90
10306;DHT22;5198;52.382;9.020;2023-03-21T07:36:11;10.20;99.90
10306;DHT22;5198;52.382;9.020;2023-03-21T07:40:17;10.20;99.90
10306;DHT22;5198;52.382;9.020;2023-03-21T07:44:20;10.30;99.90
10306;DHT22;5198;52.382;9.020;2023-03-21T07:48:24;10.30;99.90
10306;DHT22;5198;52.382;9.020;2023-03-21T07:52:27;10.40;99.90
10306;DHT22;5198;52.382;9.020;2023-03-21T07:56:30;10.40;99.90
10306;DHT22;5198;52.382;9.020;2023-03-21T08:00:33;10.40;99.90
10306;DHT22;5198;52.382;9.020;2023-03-21T08:04:37;10.50;99.90
10306;DHT22;5198;52.382;9.020;2023-03-21T08:08:40;10.50;99.90
10306;DHT22;5198;52.382;9.020;2023-03-21T08:12:43;10.60;99.90
10306;DHT22;5198;52.382;9.020;2023-03-21T08:16:46;10.60;99.90
10306;DHT22;5198;52.382;9.020;2023-03-21T08:20:53;10.70;99.90
10306;DHT22;5198;52.382;9.020;2023-03-21T08:24:56;10.70;99.90
10306;DHT22;5198;52.382;9.020;2023-03-21T08:29:00;10.80;99.90
10306;DHT22;5198;52.382;9.020;2023-03-21T08:33:03;10.90;99.90
10306;DHT22;5198;52.382;9.020;2023-03-21T08:37:07;10.90;99.90
10306;DHT22;5198;52.382;9.020;2023-03-21T08:41:10;10.90;99.90
10306;DHT22;5198;52.382;9.020;2023-03-21T08:45:15;11.00;99.90
10306;DHT22;5198;52.382;9.020;2023-03-21T08:49:18;11.00;99.90
10306;DHT22;5198;52.382;9.020;2023-03-21T08:53:22;11.00;99.90
10306;DHT22;5198;52.382;9.020;2023-03-21T08:57:24;11.00;99.90
10306;DHT22;5198;52.382;9.020;2023-03-21T09:01:27;11.00;99.90
10306;DHT22;5198;52.382;9.020;2023-03-21T09:05:31;11.00;99.90
10306;DHT22;5198;52.382;9.020;2023-03-21T09:09:35;11.00;99.90
10306;DHT22;5198;52.382;9.020;2023-03-21T09:13:38;11.00;99.90
10306;DHT22;5198;52.382;9.020;2023-03-21T09:17:41;11.00;99.90
10306;DHT22;5198;52.382;9.020;2023-03-21T09:21:45;11.00;99.90
10306;DHT22;5198;52.382;9.020;2023-03-21T09:25:49;11.00;99.90
10306;DHT22;5198;52.382;9.020;2023-03-21T09:29:52;11.00;99.90
10306;DHT22;5198;52.382;9.020;2023-03-21T09:33:56;11.10;99.90
10306;DHT22;5198;52.382;9.020;2023-03-21T09:37:59;11.10;99.90
10306;DHT22;5198;52.382;9.020;2023-03-21T09:42:06;11.10;99.90
10306;DHT22;5198;52.382;9.020;2023-03-21T09:46:16;11.10;99.90
10306;DHT22;5198;52.382;9.020;2023-03-21T09:50:22;11.20;99.90
10306;DHT22;5198;52.382;9.020;2023-03-21T09:54:29;11.20;99.90
10306;DHT22;5198;52.382;9.020;2023-03-21T09:58:36;11.20;99.90
10306;DHT22;5198;52.382;9.020;2023-03-21T10:02:41;11.20;99.90
10306;DHT22;5198;52.382;9.020;2023-03-21T10:06:50;11.30;99.90
10306;DHT22;5198;52.382;9.020;2023-03-21T10:10:55;11.30;99.90
10306;DHT22;5198;52.382;9.020;2023-03-21T10:15:03;11.30;99.90
10306;DHT22;5198;52.382;9.020;2023-03-21T10:19:09;11.30;99.90
10306;DHT22;5198;52.382;9.020;2023-03-21T10:23:14;11.30;99.90
10306;DHT22;5198;52.382;9.020;2023-03-21T10:27:17;11.30;99.90
10306;DHT22;5198;52.382;9.020;2023-03-21T10:31:21;11.30;99.90
10306;DHT22;5198;52.382;9.020;2023-03-21T10:35:28;11.40;99.90
10306;DHT22;5198;52.382;9.020;2023-03-21T10:39:34;11.40;99.90
10306;DHT22;5198;52.382;9.020;2023-03-21T10:43:39;11.40;99.90
10306;DHT22;5198;52.382;9.020;2023-03-21T10:47:43;11.40;99.90
10306;DHT22;5198;52.382;9.020;2023-03-21T10:51:50;11.40;99.90
10306;DHT22;5198;52.382;9.020;2023-03-21T10:55:54;11.50;99.90
10306;DHT22;5198;52.382;9.020;2023-03-21T10:59:58;11.50;99.90
10306;DHT22;5198;52.382;9.020;2023-03-21T11:04:08;11.60;99.90
10306;DHT22;5198;52.382;9.020;2023-03-21T11:08:12;11.60;99.90
10306;DHT22;5198;52.382;9.020;2023-03-21T11:12:16;11.60;99.90
10306;DHT22;5198;52.382;9.020;2023-03-21T11:16:21;11.60;99.90
10306;DHT22;5198;52.382;9.020;2023-03-21T11:20:29;11.70;99.90
10306;DHT22;5198;52.382;9.020;2023-03-21T11:24:32;11.70;99.90
10306;DHT22;5198;52.382;9.020;2023-03-21T11:28:36;11.70;99.90
10306;DHT22;5198;52.382;9.020;2023-03-21T11:32:39;11.70;99.90
10306;DHT22;5198;52.382;9.020;2023-03-21T11:36:45;11.80;99.90
10306;DHT22;5198;52.382;9.020;2023-03-21T11:40:52;11.80;99.90
10306;DHT22;5198;52.382;9.020;2023-03-21T11:45:01;11.80;99.90
10306;DHT22;5198;52.382;9.020;2023-03-21T11:49:07;11.80;99.90
10306;DHT22;5198;52.382;9.020;2023-03-21T11:53:15;11.90;99.90
10306;DHT22;5198;52.382;9.020;2023-03-21T11:57:21;11.90;99.90
10306;DHT22;5198;52.382;9.020;2023-03-21T12:01:29;11.90;99.90
10306;DHT22;5198;52.382;9.020;2023-03-21T12:05:34;12.00;99.90
10306;DHT22;5198;52.382;9.020;2023-03-21T12:09:41;12.00;99.90
10306;DHT22;5198;52.382;9.020;2023-03-21T12:13:47;12.00;99.90
10306;DHT22;5198;52.382;9.020;2023-03-21T12:17:55;12.00;99.90
10306;DHT22;5198;52.382;9.020;2023-03-21T12:22:03;12.10;99.90
10306;DHT22;5198;52.382;9.020;2023-03-21T12:26:13;12.10;99.90
10306;DHT22;5198;52.382;9.020;2023-03-21T12:30:31;12.10;99.90
10306;DHT22;5198;52.382;9.020;2023-03-21T12:34:42;12.20;99.90
10306;DHT22;5198;52.382;9.020;2023-03-21T12:38:49;12.10;99.90
10306;DHT22;5198;52.382;9.020;2023-03-21T12:43:06;12.10;99.90
10306;DHT22;5198;52.382;9.020;2023-03-21T12:47:14;12.20;99.90
10306;DHT22;5198;52.382;9.020;2023-03-21T12:51:18;12.20;99.90
10306;DHT22;5198;52.382;9.020;2023-03-21T12:55:23;12.20;99.90
10306;DHT22;5198;52.382;9.020;2023-03-21T12:59:32;12.20;99.90
10306;DHT22;5198;52.382;9.020;2023-03-21T13:03:37;12.20;99.90
10306;DHT22;5198;52.382;9.020;2023-03-21T13:07:45;12.20;99.90
10306;DHT22;5198;52.382;9.020;2023-03-21T13:11:49;12.20;99.90
10306;DHT22;5198;52.382;9.020;2023-03-21T13:15:56;12.20;99.90
10306;DHT22;5198;52.382;9.020;2023-03-21T13:20:03;12.20;99.90
10306;DHT22;5198;52.382;9.020;2023-03-21T13:24:23;12.10;99.90
10306;DHT22;5198;52.382;9.020;2023-03-21T13:28:27;12.20;99.90
10306;DHT22;5198;52.382;9.020;2023-03-21T13:32:32;12.10;99.90
10306;DHT22;5198;52.382;9.020;2023-03-21T13:36:36;12.10;99.90
10306;DHT22;5198;52.382;9.020;2023-03-21T13:40:40;12.10;99.90
10306;DHT22;5198;52.382;9.020;2023-03-21T13:44:46;12.10;99.90
10306;DHT22;5198;52.382;9.020;2023-03-21T13:48:57;12.10;99.90
10306;DHT22;5198;52.382;9.020;2023-03-21T13:53:15;12.10;99.90
10306;DHT22;5198;52.382;9.020;2023-03-21T13:57:21;12.00;99.90
10306;DHT22;5198;52.382;9.020;2023-03-21T14:01:33;12.00;99.90
10306;DHT22;5198;52.382;9.020;2023-03-21T14:05:37;12.10;99.90
10306;DHT22;5198;52.382;9.020;2023-03-21T14:09:42;12.10;99.90
10306;DHT22;5198;52.382;9.020;2023-03-21T14:13:46;12.10;99.90
10306;DHT22;5198;52.382;9.020;2023-03-21T14:17:52;12.10;99.90
10306;DHT22;5198;52.382;9.020;2023-03-21T14:21:57;12.10;99.90
10306;DHT22;5198;52.382;9.020;2023-03-21T14:26:00;12.10;99.90
10306;DHT22;5198;52.382;9.020;2023-03-21T14:30:04;12.10;99.90
10306;DHT22;5198;52.382;9.020;2023-03-21T14:34:07;12.20;99.90
10306;DHT22;5198;52.382;9.020;2023-03-21T14:38:18;12.20;99.90
10306;DHT22;5198;52.382;9.020;2023-03-21T14:42:23;12.20;99.90
10306;DHT22;5198;52.382;9.020;2023-03-21T14:46:26;12.20;99.90
10306;DHT22;5198;52.382;9.020;2023-03-21T14:50:34;12.20;99.90
10306;DHT22;5198;52.382;9.020;2023-03-21T14:54:39;12.20;99.90
10306;DHT22;5198;52.382;9.020;2023-03-21T14:58:44;12.20;99.90
10306;DHT22;5198;52.382;9.020;2023-03-21T15:02:47;12.20;99.90
10306;DHT22;5198;52.382;9.020;2023-03-21T15:06:51;12.20;99.90
10306;DHT22;5198;52.382;9.020;2023-03-21T15:10:58;12.20;99.90
10306;DHT22;5198;52.382;9.020;2023-03-21T15:15:12;12.20;99.90
10306;DHT22;5198;52.382;9.020;2023-03-21T15:19:17;12.20;99.90
10306;DHT22;5198;52.382;9.020;2023-03-21T15:23:23;12.20;99.90
10306;DHT22;5198;52.382;9.020;2023-03-21T15:27:30;12.30;99.90
10306;DHT22;5198;52.382;9.020;2023-03-21T15:31:37;12.30;99.90
10306;DHT22;5198;52.382;9.020;2023-03-21T15:35:41;12.20;99.90
10306;DHT22;5198;52.382;9.020;2023-03-21T15:39:46;12.20;99.90
10306;DHT22;5198;52.382;9.020;2023-03-21T15:43:59;12.20;99.90
10306;DHT22;5198;52.382;9.020;2023-03-21T15:48:05;12.20;99.90
10306;DHT22;5198;52.382;9.020;2023-03-21T15:52:10;12.20;99.90
10306;DHT22;5198;52.382;9.020;2023-03-21T15:56:13;12.20;99.90
10306;DHT22;5198;52.382;9.020;2023-03-21T16:00:21;12.20;99.90
10306;DHT22;5198;52.382;9.020;2023-03-21T16:04:26;12.20;99.90
10306;DHT22;5198;52.382;9.020;2023-03-21T16:08:31;12.20;99.90
10306;DHT22;5198;52.382;9.020;2023-03-21T16:12:36;12.20;99.90
10306;DHT22;5198;52.382;9.020;2023-03-21T16:16:40;12.10;99.90
10306;DHT22;5198;52.382;9.020;2023-03-21T16:20:43;12.10;99.90
10306;DHT22;5198;52.382;9.020;2023-03-21T16:24:49;12.20;99.90
10306;DHT22;5198;52.382;9.020;2023-03-21T16:28:52;12.20;99.90
10306;DHT22;5198;52.382;9.020;2023-03-21T16:32:56;12.20;99.90
10306;DHT22;5198;52.382;9.020;2023-03-21T16:36:59;12.20;99.90
10306;DHT22;5198;52.382;9.020;2023-03-21T16:41:04;12.20;99.90
10306;DHT22;5198;52.382;9.020;2023-03-21T16:45:07;12.10;99.90
10306;DHT22;5198;52.382;9.020;2023-03-21T16:49:17;12.10;99.90
10306;DHT22;5198;52.382;9.020;2023-03-21T16:53:20;12.10;99.90
10306;DHT22;5198;52.382;9.020;2023-03-21T16:57:23;12.10;99.90
10306;DHT22;5198;52.382;9.020;2023-03-21T17:01:29;12.10;99.90
10306;DHT22;5198;52.382;9.020;2023-03-21T17:05:33;12.10;99.90
10306;DHT22;5198;52.382;9.020;2023-03-21T17:09:36;12.10;99.90
10306;DHT22;5198;52.382;9.020;2023-03-21T17:13:39;12.10;99.90
10306;DHT22;5198;52.382;9.020;2023-03-21T17:17:42;12.10;99.90
10306;DHT22;5198;52.382;9.020;2023-03-21T17:21:47;12.00;99.90
10306;DHT22;5198;52.382;9.020;2023-03-21T17:25:50;12.00;99.90
10306;DHT22;5198;52.382;9.020;2023-03-21T17:29:52;12.00;99.90
10306;DHT22;5198;52.382;9.020;2023-03-21T17:33:58;11.90;99.90
10306;DHT22;5198;52.382;9.020;2023-03-21T17:38:02;11.90;99.90
10306;DHT22;5198;52.382;9.020;2023-03-21T17:42:08;11.80;99.90
10306;DHT22;5198;52.382;9.020;2023-03-21T17:46:16;11.80;99.90
10306;DHT22;5198;52.382;9.020;2023-03-21T17:50:20;11.70;99.90
10306;DHT22;5198;52.382;9.020;2023-03-21T17:54:26;11.60;99.90
10306;DHT22;5198;52.382;9.020;2023-03-21T17:58:29;11.60;99.90
10306;DHT22;5198;52.382;9.020;2023-03-21T18:02:31;11.50;99.90
10306;DHT22;5198;52.382;9.020;2023-03-21T18:06:35;11.50;99.90
10306;DHT22;5198;52.382;9.020;2023-03-21T18:10:40;11.50;99.90
10306;DHT22;5198;52.382;9.020;2023-03-21T18:14:44;11.40;99.90
10306;DHT22;5198;52.382;9.020;2023-03-21T18:18:47;11.40;99.90
10306;DHT22;5198;52.382;9.020;2023-03-21T18:22:51;11.30;99.90
10306;DHT22;5198;52.382;9.020;2023-03-21T18:26:55;11.30;99.90
10306;DHT22;5198;52.382;9.020;2023-03-21T18:30:58;11.30;99.90
10306;DHT22;5198;52.382;9.020;2023-03-21T18:35:11;11.30;99.90
10306;DHT22;5198;52.382;9.020;2023-03-21T18:39:15;11.30;99.90
10306;DHT22;5198;52.382;9.020;2023-03-21T18:43:19;11.30;99.90
10306;DHT22;5198;52.382;9.020;2023-03-21T18:47:42;11.30;99.90
10306;DHT22;5198;52.382;9.020;2023-03-21T18:51:45;11.30;99.90
10306;DHT22;5198;52.382;9.020;2023-03-21T18:55:48;11.30;99.90
10306;DHT22;5198;52.382;9.020;2023-03-21T18:59:54;11.20;99.90
10306;DHT22;5198;52.382;9.020;2023-03-21T19:03:57;11.20;99.90
10306;DHT22;5198;52.382;9.020;2023-03-21T19:08:21;11.20;99.90
10306;DHT22;5198;52.382;9.020;2023-03-21T19:12:24;11.10;99.90
10306;DHT22;5198;52.382;9.020;2023-03-21T19:16:28;11.10;99.90
10306;DHT22;5198;52.382;9.020;2023-03-21T19:20:51;11.00;99.90
10306;DHT22;5198;52.382;9.020;2023-03-21T19:24:54;11.00;99.90
10306;DHT22;5198;52.382;9.020;2023-03-21T19:28:57;11.00;99.90
10306;DHT22;5198;52.382;9.020;2023-03-21T19:33:04;10.90;99.90
10306;DHT22;5198;52.382;9.020;2023-03-21T19:37:07;10.90;99.90
10306;DHT22;5198;52.382;9.020;2023-03-21T19:41:09;10.80;99.90
10306;DHT22;5198;52.382;9.020;2023-03-21T19:45:12;10.80;99.90
10306;DHT22;5198;52.382;9.020;2023-03-21T19:49:18;10.70;99.90
10306;DHT22;5198;52.382;9.020;2023-03-21T19:53:27;10.70;99.90
10306;DHT22;5198;52.382;9.020;2023-03-21T19:57:30;10.60;99.90
10306;DHT22;5198;52.382;9.020;2023-03-21T20:01:36;10.60;99.90
10306;DHT22;5198;52.382;9.020;2023-03-21T20:05:41;10.50;99.90
10306;DHT22;5198;52.382;9.020;2023-03-21T20:09:44;10.50;99.90
10306;DHT22;5198;52.382;9.020;2023-03-21T20:13:53;10.50;99.90
10306;DHT22;5198;52.382;9.020;2023-03-21T20:17:58;10.40;99.90
10306;DHT22;5198;52.382;9.020;2023-03-21T20:22:02;10.40;99.90
10306;DHT22;5198;52.382;9.020;2023-03-21T20:26:21;10.40;99.90
10306;DHT22;5198;52.382;9.020;2023-03-21T20:30:30;10.40;99.90
10306;DHT22;5198;52.382;9.020;2023-03-21T20:38:51;10.40;99.90
10306;DHT22;5198;52.382;9.020;2023-03-21T20:42:54;10.50;99.90
10306;DHT22;5198;52.382;9.020;2023-03-21T20:47:00;10.50;99.90
10306;DHT22;5198;52.382;9.020;2023-03-21T20:51:06;10.60;99.90
10306;DHT22;5198;52.382;9.020;2023-03-21T20:55:32;10.60;99.90
10306;DHT22;5198;52.382;9.020;2023-03-21T20:59:35;10.60;99.90
10306;DHT22;5198;52.382;9.020;2023-03-21T21:03:38;10.60;99.90
10306;DHT22;5198;52.382;9.020;2023-03-21T21:07:44;10.70;99.90
10306;DHT22;5198;52.382;9.020;2023-03-21T21:11:50;10.70;99.90
10306;DHT22;5198;52.382;9.020;2023-03-21T21:16:07;10.70;99.90
10306;DHT22;5198;52.382;9.020;2023-03-21T21:20:11;10.70;99.90
10306;DHT22;5198;52.382;9.020;2023-03-21T21:24:18;10.80;99.90
10306;DHT22;5198;52.382;9.020;2023-03-21T21:28:22;10.80;99.90
10306;DHT22;5198;52.382;9.020;2023-03-21T21:32:25;10.80;99.90
10306;DHT22;5198;52.382;9.020;2023-03-21T21:36:37;10.70;99.90
10306;DHT22;5198;52.382;9.020;2023-03-21T21:40:40;10.70;99.90
10306;DHT22;5198;52.382;9.020;2023-03-21T21:44:45;10.70;99.90
10306;DHT22;5198;52.382;9.020;2023-03-21T21:48:47;10.70;99.90
10306;DHT22;5198;52.382;9.020;2023-03-21T21:52:54;10.80;99.90
10306;DHT22;5198;52.382;9.020;2023-03-21T21:56:57;10.80;99.90
10306;DHT22;5198;52.382;9.020;2023-03-21T22:01:01;10.80;99.90
10306;DHT22;5198;52.382;9.020;2023-03-21T22:05:07;10.80;99.90
10306;DHT22;5198;52.382;9.020;2023-03-21T22:09:11;10.80;99.90
10306;DHT22;5198;52.382;9.020;2023-03-21T22:13:17;10.80;99.90
10306;DHT22;5198;52.382;9.020;2023-03-21T22:17:21;10.90;99.90
10306;DHT22;5198;52.382;9.020;2023-03-21T22:21:24;10.90;99.90
10306;DHT22;5198;52.382;9.020;2023-03-21T22:25:27;10.90;99.90
10306;DHT22;5198;52.382;9.020;2023-03-21T22:29:33;10.90;99.90
10306;DHT22;5198;52.382;9.020;2023-03-21T22:33:44;10.80;99.90
10306;DHT22;5198;52.382;9.020;2023-03-21T22:37:49;10.80;99.90
10306;DHT22;5198;52.382;9.020;2023-03-21T22:41:53;10.80;99.90
10306;DHT22;5198;52.382;9.020;2023-03-21T22:45:57;10.80;99.90
10306;DHT22;5198;52.382;9.020;2023-03-21T22:50:03;10.80;99.90
10306;DHT22;5198;52.382;9.020;2023-03-21T22:54:07;10.80;99.90
10306;DHT22;5198;52.382;9.020;2023-03-21T22:58:10;10.70;99.90
10306;DHT22;5198;52.382;9.020;2023-03-21T23:02:13;10.70;99.90
10306;DHT22;5198;52.382;9.020;2023-03-21T23:06:17;10.70;99.90
10306;DHT22;5198;52.382;9.020;2023-03-21T23:10:21;10.70;99.90
10306;DHT22;5198;52.382;9.020;2023-03-21T23:14:23;10.70;99.90
10306;DHT22;5198;52.382;9.020;2023-03-21T23:18:26;10.60;99.90
10306;DHT22;5198;52.382;9.020;2023-03-21T23:22:31;10.60;99.90
10306;DHT22;5198;52.382;9.020;2023-03-21T23:26:34;10.50;99.90
10306;DHT22;5198;52.382;9.020;2023-03-21T23:30:39;10.50;99.90
10306;DHT22;5198;52.382;9.020;2023-03-21T23:34:43;10.50;99.90
10306;DHT22;5198;52.382;9.020;2023-03-21T23:38:50;10.40;99.90
10306;DHT22;5198;52.382;9.020;2023-03-21T23:42:53;10.40;99.90
10306;DHT22;5198;52.382;9.020;2023-03-21T23:47:01;10.40;99.90
10306;DHT22;5198;52.382;9.020;2023-03-21T23:51:04;10.40;99.90
10306;DHT22;5198;52.382;9.020;2023-03-21T23:55:09;10.40;99.90
10306;DHT22;5198;52.382;9.020;2023-03-21T23:59:12;10.40;99.90
